Time;durP1;ratioP1;P1;durP2;ratioP2;P2;SDS_P1;SDS_P2;PMS_P1;PMS_P2;Temp;Humidity;BMP_temperature;BMP_pressure;BME280_temperature;BME280_humidity;BME280_pressure;Samples;Min_cycle;Max_cycle;Signal;HPM_P1;HPM_P2
2022/06/28 00:01:01;;;;;;;6.32;5.72;;;;;;;20.76;64.35;99481.09;5050974;28;20036;-79
2022/06/28 00:03:27;;;;;;;7.90;6.65;;;;;;;20.80;64.91;99487.59;5051341;28;20526;-79
2022/06/28 00:05:52;;;;;;;10.05;6.55;;;;;;;20.84;65.00;99482.72;5033896;28;20063;-79
2022/06/28 00:08:18;;;;;;;7.75;6.22;;;;;;;20.45;66.24;99484.28;5051951;28;20039;-79
2022/06/28 00:10:43;;;;;;;7.93;5.97;;;;;;;20.25;67.27;99480.19;5033267;28;20053;-79
2022/06/28 00:13:09;;;;;;;12.40;6.28;;;;;;;20.17;67.94;99473.66;5050339;28;20356;-79
2022/06/28 00:18:18;;;;;;;6.85;5.93;;;;;;;20.43;66.58;99452.63;5031777;28;20095;-79
2022/06/28 00:20:44;;;;;;;13.30;6.40;;;;;;;20.47;66.30;99450.63;5031813;28;20566;-79
2022/06/28 00:23:09;;;;;;;8.68;5.75;;;;;;;20.81;65.29;99457.97;5032678;28;20385;-79
2022/06/28 00:25:35;;;;;;;8.77;6.10;;;;;;;20.82;64.60;99456.75;5033731;28;20041;-79
2022/06/28 00:28:00;;;;;;;6.90;5.93;;;;;;;21.05;63.99;99458.38;5032824;28;20067;-79
2022/06/28 00:30:26;;;;;;;12.10;6.50;;;;;;;21.42;62.98;99457.09;5033672;28;20127;-79
2022/06/28 00:32:51;;;;;;;7.45;5.93;;;;;;;21.60;62.62;99451.34;5051340;28;20087;-79
2022/06/28 00:35:17;;;;;;;8.95;5.55;;;;;;;21.74;61.92;99442.00;5050061;28;20021;-79
2022/06/28 00:37:44;;;;;;;10.40;6.15;;;;;;;21.76;61.51;99449.31;5051326;28;20466;-80
2022/06/28 00:40:11;;;;;;;11.38;6.60;;;;;;;21.81;61.74;99458.25;5051208;28;20045;-80
2022/06/28 00:42:39;;;;;;;9.55;6.53;;;;;;;21.87;60.94;99435.84;5031222;28;20032;-80
2022/06/28 00:45:06;;;;;;;7.07;6.22;;;;;;;22.12;60.51;99447.09;5051311;28;20448;-80
2022/06/28 00:47:32;;;;;;;5.93;5.18;;;;;;;22.02;60.26;99451.63;5049910;28;20418;-80
2022/06/28 00:49:59;;;;;;;6.85;5.80;;;;;;;21.72;61.20;99467.22;5048603;28;20052;-80
2022/06/28 00:52:25;;;;;;;7.68;6.18;;;;;;;20.93;62.90;99470.94;5050438;28;20115;-78
2022/06/28 00:54:51;;;;;;;10.25;6.07;;;;;;;20.57;64.51;99485.94;5050429;28;20100;-79
2022/06/28 00:57:16;;;;;;;6.63;6.03;;;;;;;20.48;65.42;99474.97;5050292;28;20052;-80
2022/06/28 00:59:42;;;;;;;11.75;7.18;;;;;;;20.22;66.43;99461.91;5050990;28;20581;-79
2022/06/28 01:02:07;;;;;;;15.05;7.65;;;;;;;20.21;66.62;99465.97;5033130;28;20021;-80
2022/06/28 01:04:33;;;;;;;9.55;6.35;;;;;;;20.15;67.26;99464.72;5051135;28;20031;-79
2022/06/28 01:07:00;;;;;;;11.73;6.63;;;;;;;19.92;67.82;99451.66;5050880;28;20028;-79
2022/06/28 01:09:25;;;;;;;10.45;7.18;;;;;;;19.87;68.00;99450.03;5049785;28;20494;-79
2022/06/28 01:11:51;;;;;;;7.57;6.22;;;;;;;20.18;67.49;99452.59;5050151;28;20029;-79
2022/06/28 01:14:16;;;;;;;20.98;7.20;;;;;;;20.06;67.49;99448.06;5051063;28;20076;-80
2022/06/28 01:16:42;;;;;;;7.53;6.68;;;;;;;20.07;67.77;99449.69;5032548;28;20491;-80
2022/06/28 01:19:08;;;;;;;8.98;6.80;;;;;;;20.03;67.48;99451.72;5050771;28;20031;-79
2022/06/28 01:21:35;;;;;;;9.13;6.75;;;;;;;19.76;68.88;99460.50;5050288;28;20032;-79
2022/06/28 01:24:02;;;;;;;13.27;7.78;;;;;;;19.49;70.13;99455.91;5035919;28;20017;-79
2022/06/28 01:26:30;;;;;;;8.30;6.97;;;;;;;19.54;69.85;99442.53;5054998;28;20666;-79
2022/06/28 01:28:55;;;;;;;8.30;7.03;;;;;;;19.49;69.50;99457.94;5053184;28;20021;-79
2022/06/28 01:31:23;;;;;;;10.38;7.90;;;;;;;19.44;70.36;99463.97;5054928;28;20081;-79
2022/06/28 01:33:51;;;;;;;9.88;7.35;;;;;;;19.67;69.94;99475.06;5054613;28;20036;-79
2022/06/28 01:36:16;;;;;;;10.85;7.63;;;;;;;19.56;69.97;99457.97;5036507;28;20021;-79
2022/06/28 01:38:43;;;;;;;12.40;7.55;;;;;;;19.61;70.14;99453.94;5054409;28;20071;-80
2022/06/28 01:41:32;;;;;;;12.02;7.32;;;;;;;19.75;69.45;99453.22;5054763;28;20028;-79
2022/06/28 01:43:56;;;;;;;11.55;7.90;;;;;;;19.93;68.59;99453.31;5035282;28;20477;-79
2022/06/28 01:46:22;;;;;;;7.95;6.93;;;;;;;19.97;68.08;99465.47;5035620;28;20021;-80
2022/06/28 01:48:48;;;;;;;10.75;6.70;;;;;;;20.11;67.21;99466.75;5054443;28;20021;-80
2022/06/28 01:51:13;;;;;;;14.50;7.15;;;;;;;20.10;66.73;99463.09;5035552;28;20525;-79
2022/06/28 01:53:38;;;;;;;11.35;6.03;;;;;;;20.29;66.20;99463.94;5054274;28;20028;-79
2022/06/28 01:56:04;;;;;;;7.57;6.38;;;;;;;20.40;65.38;99464.00;5035224;28;20029;-79
2022/06/28 01:58:30;;;;;;;13.57;7.32;;;;;;;20.24;65.62;99459.47;5052185;28;20060;-79
2022/06/28 02:00:55;;;;;;;11.02;6.93;;;;;;;20.20;66.00;99470.81;5035958;28;20052;-79
2022/06/28 02:03:22;;;;;;;8.95;6.25;;;;;;;19.72;67.02;99471.00;5016369;28;20637;-79
2022/06/28 02:05:47;;;;;;;8.52;6.28;;;;;;;19.84;67.04;99467.81;5034151;28;20033;-79
2022/06/28 02:08:13;;;;;;;8.82;6.30;;;;;;;19.95;66.39;99472.75;5036211;28;20535;-79
2022/06/28 02:10:38;;;;;;;7.90;6.53;;;;;;;20.11;66.20;99467.56;5036165;28;20029;-79
2022/06/28 02:13:04;;;;;;;9.02;6.57;;;;;;;20.27;65.74;99466.38;5052635;28;20020;-80
2022/06/28 02:15:30;;;;;;;7.80;6.80;;;;;;;20.27;65.47;99474.91;5035999;28;20025;-79
2022/06/28 02:17:59;;;;;;;12.07;6.68;;;;;;;20.38;65.11;99472.09;5035464;28;20025;-79
2022/06/28 02:20:25;;;;;;;7.07;6.22;;;;;;;20.55;64.28;99477.00;5036056;28;20032;-79
2022/06/28 02:22:50;;;;;;;12.40;7.03;;;;;;;20.61;64.17;99466.06;5035820;28;20430;-79
2022/06/28 02:25:17;;;;;;;17.00;7.28;;;;;;;20.85;62.92;99472.19;5052518;28;20033;-79
2022/06/28 02:27:43;;;;;;;8.32;6.95;;;;;;;20.99;62.76;99465.69;5032227;28;20410;-79
2022/06/28 02:30:10;;;;;;;15.80;6.97;;;;;;;21.06;62.82;99477.06;5035878;28;20511;-79
2022/06/28 02:32:36;;;;;;;12.52;6.80;;;;;;;21.09;62.96;99479.06;5034817;28;20086;-79
2022/06/28 02:40:29;;;;;;;9.23;6.45;;;;;;;20.19;66.33;99480.56;5053777;28;20565;-79
2022/06/28 02:43:00;;;;;;;12.75;6.93;;;;;;;20.38;65.69;99472.09;5051801;28;20025;-79
2022/06/28 02:45:30;;;;;;;11.65;7.20;;;;;;;20.40;65.53;99475.34;5035627;28;20490;-79
2022/06/28 02:47:56;;;;;;;21.50;7.53;;;;;;;20.60;64.68;99487.97;5034134;28;20035;-79
2022/06/28 02:50:22;;;;;;;15.68;7.97;;;;;;;20.47;64.76;99475.34;5035349;28;20395;-80
2022/06/28 02:52:49;;;;;;;9.63;6.97;;;;;;;20.67;64.73;99472.94;5053422;28;20250;-79
2022/06/28 02:55:14;;;;;;;9.45;6.90;;;;;;;20.73;64.20;99477.03;5053335;28;20498;-79
2022/06/28 02:57:40;;;;;;;13.30;7.10;;;;;;;20.81;63.95;99466.50;5050987;28;20033;-79
2022/06/28 03:00:10;;;;;;;16.23;6.75;;;;;;;20.88;63.40;99466.50;5053130;28;20100;-79
2022/06/28 03:02:37;;;;;;;10.45;6.70;;;;;;;20.98;63.46;99481.94;5052696;28;20055;-79
2022/06/28 03:05:04;;;;;;;11.25;6.88;;;;;;;21.00;63.52;99478.69;5035208;28;20036;-80
2022/06/28 03:07:29;;;;;;;10.45;6.70;;;;;;;21.12;63.41;99474.63;5053040;28;20079;-79
2022/06/28 03:09:55;;;;;;;12.73;7.15;;;;;;;21.17;63.35;99477.88;5050913;28;20033;-79
2022/06/28 03:12:20;;;;;;;9.10;6.40;;;;;;;21.13;63.12;99481.94;5052272;28;20094;-79
2022/06/28 03:14:46;;;;;;;18.42;6.90;;;;;;;21.29;62.96;99488.00;5034874;28;20036;-79
2022/06/28 03:17:11;;;;;;;11.77;7.05;;;;;;;21.20;63.74;99483.94;5034996;28;20059;-79
2022/06/28 03:19:37;;;;;;;14.82;7.30;;;;;;;21.15;63.25;99486.00;5034856;28;20040;-79
2022/06/28 03:22:02;;;;;;;12.48;6.50;;;;;;;20.74;64.20;99503.41;5052778;28;20025;-79
2022/06/28 03:24:28;;;;;;;10.57;6.78;;;;;;;20.72;64.47;99500.16;5052106;28;20167;-79
2022/06/28 03:26:53;;;;;;;11.52;6.80;;;;;;;20.92;64.24;99485.59;5051831;28;20029;-79
2022/06/28 03:29:19;;;;;;;13.80;7.10;;;;;;;20.99;64.16;99497.78;5033555;28;20013;-79
2022/06/28 03:31:44;;;;;;;15.15;7.82;;;;;;;21.01;64.24;99491.69;5052566;28;20025;-79
2022/06/28 03:34:10;;;;;;;15.48;7.18;;;;;;;21.02;64.08;99488.44;5050283;28;20399;-78
2022/06/28 03:36:35;;;;;;;11.90;7.43;;;;;;;20.92;64.92;99483.53;5042898;28;20029;-78
2022/06/28 03:39:01;;;;;;;10.20;6.97;;;;;;;20.91;64.78;99487.59;5034225;28;20048;-79
2022/06/28 03:41:26;;;;;;;12.85;7.82;;;;;;;20.84;65.06;99494.09;5051599;28;20111;-79
2022/06/28 03:43:53;;;;;;;17.23;7.82;;;;;;;20.65;66.20;99498.13;5051326;28;20029;-78
2022/06/28 03:46:20;;;;;;;14.30;7.20;;;;;;;20.32;66.55;99491.53;5050177;28;20025;-79
2022/06/28 03:48:46;;;;;;;13.40;7.00;;;;;;;20.26;66.88;99473.28;5050853;28;20036;-77
2022/06/28 03:51:12;;;;;;;15.20;6.88;;;;;;;20.23;67.10;99480.56;5052106;28;20024;-78
2022/06/28 03:53:38;;;;;;;11.45;7.72;;;;;;;19.99;67.36;99471.56;5034304;28;20480;-77
2022/06/28 03:56:04;;;;;;;15.70;6.32;;;;;;;20.13;67.10;99482.16;5051283;28;20479;-78
2022/06/28 03:58:30;;;;;;;12.75;7.32;;;;;;;20.14;67.15;99491.50;5051151;28;20049;-77
2022/06/28 04:00:56;;;;;;;14.50;7.07;;;;;;;20.23;67.06;99491.94;5028539;28;20037;-78
2022/06/28 04:03:21;;;;;;;18.23;8.05;;;;;;;20.37;66.94;99487.50;5036037;28;20029;-78
2022/06/28 04:05:47;;;;;;;11.80;6.82;;;;;;;20.55;66.50;99488.38;5032561;28;20040;-78
2022/06/28 04:08:13;;;;;;;9.45;6.32;;;;;;;20.65;65.96;99481.06;5048914;28;20118;-77
2022/06/28 04:10:38;;;;;;;8.98;6.95;;;;;;;20.69;66.31;99481.06;5030856;28;20614;-78
2022/06/28 04:13:04;;;;;;;14.07;7.85;;;;;;;20.79;66.05;99487.97;5048543;28;20119;-78
2022/06/28 04:15:31;;;;;;;13.90;7.00;;;;;;;20.60;66.88;99484.31;5048449;28;20029;-78
2022/06/28 04:17:56;;;;;;;12.35;7.05;;;;;;;20.62;67.75;99471.31;5049901;28;20025;-78
2022/06/28 04:20:22;;;;;;;12.13;7.57;;;;;;;20.80;67.42;99487.59;5031837;28;20025;-78
2022/06/28 04:22:48;;;;;;;8.38;7.03;;;;;;;20.78;66.93;99484.34;5032883;28;20085;-78
2022/06/28 04:25:13;;;;;;;10.73;6.50;;;;;;;20.81;66.69;99483.56;5047436;28;20024;-78
2022/06/28 04:27:39;;;;;;;20.65;7.32;;;;;;;21.07;65.61;99481.53;5031728;28;20132;-78
2022/06/28 04:30:05;;;;;;;14.25;7.22;;;;;;;21.16;65.49;99481.09;5048563;28;20473;-78
2022/06/28 04:32:30;;;;;;;12.20;6.80;;;;;;;21.25;64.64;99484.34;5048200;28;20053;-78
2022/06/28 04:34:57;;;;;;;7.85;6.45;;;;;;;21.32;65.06;99497.75;5049382;28;20056;-78
2022/06/28 04:37:23;;;;;;;18.35;6.93;;;;;;;21.41;64.35;99488.78;5049603;28;20024;-78
2022/06/28 04:39:48;;;;;;;12.55;6.60;;;;;;;21.44;63.74;99494.47;5032637;28;20067;-78
2022/06/28 04:42:14;;;;;;;11.77;7.55;;;;;;;21.43;64.55;99497.75;5033614;28;20033;-78
2022/06/28 04:44:41;;;;;;;12.32;6.60;;;;;;;21.43;65.67;99506.28;5050711;28;20490;-78
2022/06/28 04:47:07;;;;;;;11.07;7.13;;;;;;;21.61;65.69;99500.56;5050642;28;20092;-78
2022/06/28 04:49:33;;;;;;;14.25;7.43;;;;;;;21.66;65.09;99493.59;5051308;28;20044;-78
2022/06/28 04:51:59;;;;;;;16.95;7.03;;;;;;;21.46;61.13;99496.94;5033276;28;20052;-78
2022/06/28 04:54:24;;;;;;;7.53;6.28;;;;;;;21.34;62.24;99498.16;5047024;28;20024;-78
2022/06/28 04:56:50;;;;;;;6.50;5.70;;;;;;;21.35;62.53;99493.28;5032094;28;20120;-78
2022/06/28 04:59:15;;;;;;;10.57;6.68;;;;;;;21.29;62.86;99490.03;5050926;28;20025;-78
2022/06/28 05:01:41;;;;;;;16.40;7.20;;;;;;;21.32;63.46;99490.03;5030090;28;20154;-78
2022/06/28 05:04:06;;;;;;;17.02;7.55;;;;;;;21.30;63.85;99497.34;5045711;28;20029;-79
2022/06/28 05:06:32;;;;;;;10.57;6.97;;;;;;;21.25;63.91;99494.94;5032997;28;20032;-78
2022/06/28 05:08:58;;;;;;;11.63;7.20;;;;;;;21.09;64.30;99501.03;5031729;28;20017;-78
2022/06/28 05:11:25;;;;;;;18.42;8.85;;;;;;;20.89;64.79;99510.78;5051002;28;20098;-79
2022/06/28 05:13:50;;;;;;;23.27;9.60;;;;;;;20.93;66.05;99505.06;5049238;28;20029;-79
2022/06/28 05:16:16;;;;;;;25.02;9.02;;;;;;;21.04;65.88;99513.63;5050999;28;20216;-79
2022/06/28 05:18:41;;;;;;;17.27;8.90;;;;;;;21.22;65.54;99512.78;5031737;28;20039;-78
2022/06/28 05:21:07;;;;;;;14.10;7.65;;;;;;;21.46;64.13;99526.16;5028631;28;20021;-77
2022/06/28 05:23:33;;;;;;;12.38;8.52;;;;;;;21.52;64.88;99525.78;5049453;28;20036;-78
2022/06/28 05:25:58;;;;;;;14.18;7.63;;;;;;;21.48;64.26;99513.56;5049487;28;20419;-78
2022/06/28 05:28:24;;;;;;;13.45;8.15;;;;;;;21.70;64.15;99520.88;5050793;28;20021;-78
2022/06/28 05:30:49;;;;;;;22.02;8.95;;;;;;;21.82;63.92;99524.50;5049753;28;20086;-78
2022/06/28 05:33:15;;;;;;;13.18;8.32;;;;;;;21.80;63.88;99530.63;5050016;28;20104;-78
2022/06/28 05:35:41;;;;;;;16.90;7.95;;;;;;;22.02;63.88;99525.66;5050627;28;20039;-78
2022/06/28 05:38:07;;;;;;;11.07;7.97;;;;;;;22.18;63.04;99515.84;5031731;28;20036;-78
2022/06/28 05:40:33;;;;;;;17.30;8.00;;;;;;;22.35;61.27;99511.28;5049329;28;20077;-78
2022/06/28 05:42:59;;;;;;;12.57;9.20;;;;;;;22.58;61.44;99522.19;5049913;28;20535;-78
2022/06/28 05:45:25;;;;;;;13.27;7.30;;;;;;;22.85;59.70;99518.75;5032614;28;20028;-78
2022/06/28 05:47:50;;;;;;;12.07;7.53;;;;;;;23.21;59.36;99526.19;5029271;28;20159;-78
2022/06/28 05:50:16;;;;;;;11.93;6.57;;;;;;;23.46;58.24;99513.75;5015053;28;20056;-78
2022/06/28 05:52:42;;;;;;;7.90;6.80;;;;;;;23.78;58.19;99517.53;5049913;28;20033;-77
2022/06/28 05:55:07;;;;;;;11.82;7.13;;;;;;;24.03;57.67;99505.00;5046630;28;20415;-78
2022/06/28 05:57:33;;;;;;;12.57;6.60;;;;;;;24.22;57.07;99507.22;5050409;28;20037;-77
2022/06/28 05:59:58;;;;;;;9.02;7.32;;;;;;;24.40;56.43;99500.47;5049401;28;20033;-78
2022/06/28 06:02:24;;;;;;;13.70;7.72;;;;;;;24.58;56.24;99508.78;5050460;28;20025;-78
2022/06/28 06:04:50;;;;;;;8.65;5.88;;;;;;;24.76;53.42;99510.56;5050139;28;20108;-78
2022/06/28 06:07:16;;;;;;;9.90;6.13;;;;;;;24.98;54.57;99510.25;5032613;28;20031;-79
2022/06/28 06:09:42;;;;;;;11.57;6.70;;;;;;;25.06;52.85;99498.25;5047584;28;20041;-78
2022/06/28 06:12:08;;;;;;;11.05;5.97;;;;;;;25.30;52.87;99503.97;5035990;28;20043;-78
2022/06/28 06:14:34;;;;;;;7.95;6.00;;;;;;;25.38;51.16;99502.63;5053398;28;20497;-78
2022/06/28 06:16:59;;;;;;;13.68;6.72;;;;;;;25.54;51.15;99501.13;5050682;28;20103;-78
2022/06/28 06:19:25;;;;;;;7.82;6.00;;;;;;;25.74;51.43;99504.03;5034216;28;20120;-78
2022/06/28 06:21:50;;;;;;;7.40;6.05;;;;;;;25.78;50.53;99501.09;5042178;28;20403;-78
2022/06/28 06:24:16;;;;;;;12.07;6.45;;;;;;;25.99;49.51;99505.56;5047931;28;20086;-78
2022/06/28 06:26:42;;;;;;;6.80;5.57;;;;;;;25.85;48.91;99500.13;5048032;28;20094;-78
2022/06/28 06:29:07;;;;;;;6.80;5.90;;;;;;;26.05;49.06;99503.81;5017630;28;20475;-78
2022/06/28 06:31:33;;;;;;;8.82;6.15;;;;;;;26.22;48.74;99503.91;5027934;28;20032;-78
2022/06/28 06:33:58;;;;;;;8.15;6.10;;;;;;;26.11;48.63;99500.44;5025936;28;20033;-78
2022/06/28 06:36:25;;;;;;;10.35;5.55;;;;;;;26.31;49.58;99497.59;5049015;28;20048;-76
2022/06/28 06:38:50;;;;;;;7.63;5.80;;;;;;;26.53;48.62;99505.69;5044469;28;20044;-78
2022/06/28 06:41:16;;;;;;;8.80;5.03;;;;;;;26.66;48.50;99497.22;5051403;28;20091;-76
2022/06/28 06:43:42;;;;;;;7.20;5.85;;;;;;;26.80;48.05;99494.00;5026399;28;20029;-78
2022/06/28 06:46:07;;;;;;;6.13;5.45;;;;;;;26.98;48.21;99498.53;5044228;28;20112;-77
2022/06/28 06:48:32;;;;;;;11.50;6.55;;;;;;;26.37;47.34;99494.97;5027393;28;20037;-76
2022/06/28 06:50:58;;;;;;;10.00;5.97;;;;;;;26.71;47.36;99503.22;5050699;28;20047;-78
2022/06/28 06:53:24;;;;;;;12.32;5.88;;;;;;;26.85;47.26;99499.22;5048007;28;20447;-76
2022/06/28 06:55:49;;;;;;;15.13;6.65;;;;;;;27.00;46.61;99493.16;5050779;28;20033;-78
2022/06/28 06:58:15;;;;;;;9.02;5.78;;;;;;;27.14;46.29;99500.56;5021456;28;20053;-79
2022/06/28 07:00:41;;;;;;;10.45;6.53;;;;;;;27.26;46.43;99493.31;5030129;28;20502;-78
2022/06/28 07:03:06;;;;;;;16.98;7.00;;;;;;;27.36;46.07;99502.91;5047042;28;20024;-78
2022/06/28 07:05:32;;;;;;;10.35;5.50;;;;;;;27.51;45.22;99494.72;5046915;28;20154;-79
2022/06/28 07:07:58;;;;;;;7.03;5.18;;;;;;;27.71;44.73;99491.72;5034143;28;20407;-79
2022/06/28 07:10:23;;;;;;;14.63;6.32;;;;;;;27.78;44.04;99490.72;5024363;28;20030;-79
2022/06/28 07:12:49;;;;;;;9.45;5.50;;;;;;;27.89;44.12;99485.47;5033654;28;20120;-79
2022/06/28 07:15:15;;;;;;;8.85;5.32;;;;;;;28.02;43.59;99482.66;5042507;28;20487;-78
2022/06/28 07:17:40;;;;;;;5.07;4.50;;;;;;;28.23;42.96;99486.16;5031571;28;20033;-79
2022/06/28 07:20:06;;;;;;;19.15;4.75;;;;;;;27.94;42.37;99482.06;5046508;28;20036;-78
2022/06/28 07:22:33;;;;;;;7.75;4.93;;;;;;;28.07;42.71;99484.94;5046382;28;20560;-78
2022/06/28 07:24:59;;;;;;;9.40;5.60;;;;;;;28.09;43.50;99470.94;5036768;28;20029;-78
2022/06/28 07:27:26;;;;;;;9.25;5.00;;;;;;;28.12;40.46;99470.03;5043463;28;20499;-78
2022/06/28 07:29:51;;;;;;;18.98;4.38;;;;;;;28.39;39.97;99471.72;5028268;28;20083;-80
2022/06/28 07:32:18;;;;;;;8.38;5.38;;;;;;;28.45;40.01;99475.59;5032888;28;20036;-75
2022/06/28 07:34:44;;;;;;;5.80;4.40;;;;;;;28.37;39.29;99479.16;5037657;28;20423;-77
2022/06/28 07:37:09;;;;;;;8.35;4.47;;;;;;;28.53;41.51;99466.75;5030571;28;20087;-77
2022/06/28 07:39:35;;;;;;;6.82;4.40;;;;;;;28.51;38.49;99467.22;5039127;28;20028;-78
2022/06/28 07:42:00;;;;;;;7.03;4.55;;;;;;;28.73;40.67;99463.66;5019419;28;20044;-77
2022/06/28 07:44:26;;;;;;;4.90;3.88;;;;;;;28.88;38.16;99471.84;5047719;28;20044;-79
2022/06/28 07:46:52;;;;;;;15.75;4.40;;;;;;;28.57;38.34;99473.19;5029108;28;20126;-78
2022/06/28 07:49:18;;;;;;;4.30;3.90;;;;;;;28.60;38.62;99463.66;5030962;28;20045;-79
2022/06/28 07:54:27;;;;;;;5.28;4.75;;;;;;;29.11;38.19;99476.41;5047560;28;20043;-77
2022/06/28 07:56:53;;;;;;;4.55;3.33;;;;;;;29.25;36.17;99473.03;5049919;28;20085;-78
2022/06/28 07:59:18;;;;;;;3.58;3.28;;;;;;;29.36;36.52;99469.00;5034133;28;20471;-77
2022/06/28 08:01:44;;;;;;;7.22;3.30;;;;;;;29.41;35.91;99471.25;5049027;28;20125;-77
2022/06/28 08:04:11;;;;;;;6.30;3.67;;;;;;;29.55;36.37;99467.09;5051265;28;20037;-75
2022/06/28 08:06:37;;;;;;;4.25;3.85;;;;;;;29.38;36.83;99469.31;5034124;28;20033;-78
2022/06/28 08:09:03;;;;;;;5.50;4.07;;;;;;;29.20;36.73;99464.19;5043811;28;20521;-80
2022/06/28 08:11:29;;;;;;;4.40;3.72;;;;;;;29.11;37.09;99467.78;5041892;28;20102;-76
2022/06/28 08:13:54;;;;;;;13.55;4.15;;;;;;;29.48;39.37;99462.41;5050632;28;20028;-79
2022/06/28 08:16:21;;;;;;;10.32;4.10;;;;;;;29.70;37.99;99465.31;5027278;28;20029;-79
2022/06/28 08:18:47;;;;;;;18.83;4.43;;;;;;;29.69;37.09;99455.06;5031305;28;20057;-74
2022/06/28 08:21:12;;;;;;;6.28;3.92;;;;;;;29.84;38.13;99457.38;5020871;28;20132;-75
2022/06/28 08:23:38;;;;;;;6.82;3.90;;;;;;;30.07;37.19;99456.16;5033524;28;20108;-73
2022/06/28 08:26:04;;;;;;;4.07;3.53;;;;;;;29.78;36.91;99459.28;5050947;28;20035;-73
2022/06/28 08:28:29;;;;;;;5.90;4.25;;;;;;;29.53;37.39;99458.13;5049417;28;20533;-77
2022/06/28 08:30:55;;;;;;;6.90;4.40;;;;;;;29.47;38.13;99454.22;5024226;28;20033;-75
2022/06/28 08:33:21;;;;;;;10.85;3.97;;;;;;;29.14;37.45;99459.03;5032992;28;20032;-83
2022/06/28 08:35:46;;;;;;;5.63;4.05;;;;;;;29.55;38.51;99441.97;5031642;28;20091;-79
2022/06/28 08:38:12;;;;;;;8.05;3.85;;;;;;;29.56;37.42;99455.13;5046474;28;20457;-79
2022/06/28 08:40:39;;;;;;;5.82;3.88;;;;;;;29.84;37.08;99440.91;5047574;28;20108;-79
2022/06/28 08:43:06;;;;;;;7.00;4.00;;;;;;;30.24;37.02;99448.09;5028134;28;20510;-78
2022/06/28 08:45:33;;;;;;;4.38;3.97;;;;;;;30.60;36.38;99447.94;5023758;28;20035;-78
2022/06/28 08:48:05;;;;;;;5.13;3.83;;;;;;;30.60;34.93;99445.81;5048141;28;20090;-76
2022/06/28 08:50:30;;;;;;;12.00;4.35;;;;;;;30.95;36.64;99451.41;5029234;28;20135;-78
2022/06/28 08:52:58;;;;;;;4.38;3.90;;;;;;;31.10;36.35;99447.91;5044227;28;20120;-77
2022/06/28 08:55:24;;;;;;;5.38;3.45;;;;;;;31.04;35.39;99449.84;5023179;28;20033;-77
2022/06/28 08:57:51;;;;;;;5.10;3.00;;;;;;;31.36;35.10;99441.88;5040313;28;20042;-78
2022/06/28 09:00:16;;;;;;;6.13;3.92;;;;;;;31.55;33.87;99436.91;5014046;28;20033;-76
2022/06/28 09:02:42;;;;;;;8.88;3.35;;;;;;;31.69;33.06;99447.00;5026280;28;20025;-78
2022/06/28 09:05:07;;;;;;;5.38;3.40;;;;;;;31.85;34.13;99440.13;5028198;28;20040;-80
2022/06/28 09:07:33;;;;;;;4.90;4.25;;;;;;;31.95;34.00;99440.91;5023693;28;20068;-77
2022/06/28 09:09:59;;;;;;;7.20;3.40;;;;;;;32.01;32.19;99447.66;5038670;28;20048;-78
2022/06/28 09:12:25;;;;;;;6.63;3.35;;;;;;;32.15;32.60;99443.25;5042014;28;20025;-77
2022/06/28 09:14:50;;;;;;;29.77;5.53;;;;;;;32.07;32.17;99442.81;5030846;28;20499;-78
2022/06/28 09:17:23;;;;;;;8.73;3.42;;;;;;;32.22;32.45;99424.78;5046100;28;20037;-78
2022/06/28 09:19:53;;;;;;;4.15;3.42;;;;;;;31.02;30.23;99423.53;5046078;28;20579;-79
2022/06/28 09:22:35;;;;;;;5.55;3.00;;;;;;;31.54;31.66;99437.41;5044825;28;20699;-76
2022/06/28 09:25:08;;;;;;;3.78;3.10;;;;;;;31.84;31.25;99440.59;5027611;28;20037;-78
2022/06/28 09:27:38;;;;;;;9.68;3.05;;;;;;;32.08;33.32;99444.41;5025481;28;20430;-80
2022/06/28 09:30:06;;;;;;;4.00;3.05;;;;;;;32.24;33.60;99442.47;5028976;28;20553;-78
2022/06/28 09:32:34;;;;;;;3.17;2.65;;;;;;;32.41;32.23;99447.88;5050355;28;20093;-78
2022/06/28 09:35:04;;;;;;;5.00;3.13;;;;;;;32.56;32.45;99448.00;5050203;28;20098;-78
2022/06/28 09:37:34;;;;;;;5.97;2.97;;;;;;;32.55;30.27;99432.72;5037188;28;20075;-78
2022/06/28 09:40:32;;;;;;;3.75;3.40;;;;;;;32.51;29.61;99439.97;5045715;28;20025;-78
2022/06/28 09:43:14;;;;;;;7.95;3.35;;;;;;;32.24;31.25;99454.03;5032566;28;20044;-80
2022/06/28 09:45:42;;;;;;;12.80;3.30;;;;;;;32.29;32.44;99436.00;5047080;28;20107;-78
2022/06/28 09:48:08;;;;;;;8.55;3.30;;;;;;;32.32;32.86;99445.81;5063157;28;20036;-79
2022/06/28 09:50:36;;;;;;;6.18;3.15;;;;;;;32.57;31.36;99443.81;5050382;28;20073;-79
2022/06/28 09:53:03;;;;;;;6.07;2.97;;;;;;;32.53;30.78;99435.28;5030400;28;20032;-77
2022/06/28 09:55:31;;;;;;;4.25;2.92;;;;;;;32.61;31.46;99442.34;5043993;28;20063;-78
2022/06/28 09:57:58;;;;;;;5.22;3.05;;;;;;;32.44;30.36;99427.47;5044943;28;20447;-78
2022/06/28 10:00:24;;;;;;;3.17;2.90;;;;;;;32.39;29.88;99442.56;5044874;28;20118;-78
2022/06/28 10:02:53;;;;;;;3.92;2.75;;;;;;;32.39;31.53;99436.00;5060799;28;20556;-78
2022/06/28 10:05:19;;;;;;;5.00;3.35;;;;;;;32.31;29.54;99427.63;5053268;28;20045;-77
2022/06/28 10:07:46;;;;;;;3.55;3.25;;;;;;;32.42;30.68;99429.22;5053504;28;20537;-78
2022/06/28 10:10:12;;;;;;;6.55;3.00;;;;;;;32.55;30.61;99414.56;5037081;28;20033;-78
2022/06/28 10:15:25;;;;;;;8.88;3.63;;;;;;;32.70;30.00;99423.31;5049067;28;20188;-77
2022/06/28 10:17:54;;;;;;;4.13;3.10;;;;;;;32.74;31.79;99421.06;5064933;28;20052;-78
2022/06/28 10:20:35;;;;;;;10.00;4.10;;;;;;;32.71;32.60;99411.25;5058206;28;20447;-79
2022/06/28 10:23:24;;;;;;;6.43;3.33;;;;;;;32.61;32.15;99419.19;5057415;28;20548;-78
2022/06/28 10:26:19;;;;;;;4.22;3.67;;;;;;;32.42;33.00;99420.56;5036550;28;20048;-79
2022/06/28 10:28:46;;;;;;;4.25;3.83;;;;;;;32.29;32.88;99412.84;5053152;28;20526;-78
2022/06/28 10:31:23;;;;;;;7.18;3.53;;;;;;;32.45;32.94;99408.00;5050801;28;20055;-78
2022/06/28 10:33:57;;;;;;;3.90;3.60;;;;;;;32.38;32.94;99396.78;5031021;28;20206;-79
2022/06/28 10:36:31;;;;;;;6.20;3.83;;;;;;;32.20;32.22;99386.84;5050867;28;20025;-79
2022/06/28 10:39:08;;;;;;;3.90;3.47;;;;;;;32.35;32.80;99393.59;5052098;28;20033;-79
2022/06/28 10:41:59;;;;;;;4.20;3.10;;;;;;;32.37;31.08;99390.19;5037046;28;20181;-79
2022/06/28 10:44:31;;;;;;;3.95;2.97;;;;;;;32.54;30.28;99393.47;5047857;28;20496;-77
2022/06/28 10:46:59;;;;;;;5.97;4.20;;;;;;;32.77;32.04;99391.09;5051206;28;20625;-78
2022/06/28 10:49:25;;;;;;;6.63;3.72;;;;;;;32.80;34.40;99378.53;5026165;28;20132;-78
2022/06/28 10:52:39;;;;;;;6.55;3.05;;;;;;;32.86;31.74;99378.66;5053023;28;20551;-79
2022/06/28 10:55:05;;;;;;;6.68;3.70;;;;;;;32.87;31.00;99386.06;5026389;28;20422;-78
2022/06/28 10:57:30;;;;;;;9.95;3.97;;;;;;;32.72;31.43;99394.69;5043393;28;20115;-78
2022/06/28 10:59:58;;;;;;;5.68;3.95;;;;;;;32.67;30.80;99386.66;5050736;28;20040;-78
2022/06/28 11:02:45;;;;;;;4.68;3.50;;;;;;;32.83;30.19;99382.56;5033691;28;20033;-78
2022/06/28 11:05:11;;;;;;;7.25;4.03;;;;;;;33.00;31.28;99377.94;5048478;28;20041;-78
2022/06/28 11:07:39;;;;;;;8.60;4.03;;;;;;;33.18;30.45;99377.03;5035151;28;20028;-78
2022/06/28 11:10:08;;;;;;;5.93;3.88;;;;;;;33.08;31.18;99387.09;5042783;28;20539;-79
2022/06/28 11:12:37;;;;;;;7.30;4.00;;;;;;;32.82;31.58;99386.75;5033370;28;20029;-77
2022/06/28 11:15:04;;;;;;;194.07;106.05;;;;;;;32.87;31.71;99389.75;5032672;28;20029;-78
2022/06/28 11:17:35;;;;;;;90.03;48.38;;;;;;;32.95;31.47;99374.97;5032155;28;20040;-80
2022/06/28 11:20:09;;;;;;;98.68;49.22;;;;;;;32.94;31.71;99379.13;5051933;28;20021;-79
2022/06/28 11:22:47;;;;;;;47.88;25.27;;;;;;;32.66;31.67;99385.06;5051357;28;20102;-79
2022/06/28 11:25:24;;;;;;;6.43;4.68;;;;;;;32.63;32.57;99375.25;5032756;28;20037;-78
2022/06/28 11:27:52;;;;;;;10.73;5.47;;;;;;;32.95;33.44;99374.97;5021676;28;20510;-78
2022/06/28 11:30:18;;;;;;;10.80;4.65;;;;;;;33.17;32.73;99375.41;5045828;28;20029;-78
2022/06/28 11:32:49;;;;;;;5.80;4.43;;;;;;;33.41;31.63;99362.97;5032212;28;20032;-82
2022/06/28 11:35:19;;;;;;;7.60;3.70;;;;;;;33.54;31.78;99373.50;5049074;28;20029;-81
2022/06/28 11:37:55;;;;;;;5.60;3.50;;;;;;;33.19;32.89;99372.03;5034425;28;20033;-81
2022/06/28 11:40:24;;;;;;;5.85;4.03;;;;;;;33.25;31.11;99364.25;5052693;28;20017;-81
2022/06/28 11:42:59;;;;;;;6.72;3.70;;;;;;;33.25;32.68;99358.47;5052659;28;20025;-81